Long Point, Illinois
Current Conditions -  °F | °C
As of 6:55 AM on Saturday 22 Nov 2014 (Local Time) from KPNT Reporting Station
Overcast Overcast  
Wind Chill: 32°   Ceiling: 1900
Heat Index: 40°   Visibility: 10mi
Dew Point: 36°   Wind: 14mph
Humidity: 86%   Direction: 190°S
Pressure: 30.06"   Gusts: 22mph
Location:  41°N, 88.89°W
Report Text: KPNT 221255Z AUTO 19012G19KT 10SM OVC019 04/02 A3006 RMK AO2 T00420020
Loading
Personal Weather Stations






























Interactive Weather Map New forecast layout! Learn more

10-Day Weather Forecast

Advertisements
Track Severe Weather on mobile